Port Talbot, United Kingdom
Current Conditions -  °F | °C
As of 1:50 AM on Tuesday 23 Dec 2014 (Local Time) from EGDX Reporting Station
Broken Clouds Broken Clouds  
Wind Chill: 52°   Ceiling: 3700
Heat Index: 52°   Visibility: 6mi
Dew Point: 46°   Wind: 25mph
Humidity: 82%   Direction: 250°WSW
Pressure: 30.06"   Gusts: 38mph
Location:  51.6°N, 3.78°W
Report Text: EGDX 230150Z AUTO 25022G33KT 9999 BKN037/// 11/08 Q1018
Loading
Personal Weather Stations






























Interactive Weather Map New forecast layout! Learn more

10-Day Weather Forecast

Advertisements
Track Severe Weather on mobile